sensor_id;sensor_type;location;lat;lon;timestamp;P1;durP1;ratioP1;P2;durP2;ratioP2
44987;SDS011;35735;52.226;21.254;2023-02-03T00:01:18;9.05;;;4.60;;
44987;SDS011;35735;52.226;21.254;2023-02-03T00:06:19;6.20;;;4.37;;
44987;SDS011;35735;52.226;21.254;2023-02-03T00:11:22;7.05;;;4.70;;
44987;SDS011;35735;52.226;21.254;2023-02-03T00:16:22;7.05;;;5.00;;
44987;SDS011;35735;52.226;21.254;2023-02-03T00:21:23;6.15;;;4.75;;
44987;SDS011;35735;52.226;21.254;2023-02-03T00:26:23;6.65;;;5.12;;
44987;SDS011;35735;52.226;21.254;2023-02-03T00:31:24;7.87;;;4.90;;
44987;SDS011;35735;52.226;21.254;2023-02-03T00:36:24;6.75;;;4.37;;
44987;SDS011;35735;52.226;21.254;2023-02-03T00:41:27;6.68;;;4.45;;
44987;SDS011;35735;52.226;21.254;2023-02-03T00:46:29;7.57;;;4.80;;
44987;SDS011;35735;52.226;21.254;2023-02-03T00:51:30;6.62;;;4.55;;
44987;SDS011;35735;52.226;21.254;2023-02-03T00:56:31;8.27;;;4.75;;
44987;SDS011;35735;52.226;21.254;2023-02-03T01:01:32;6.45;;;4.50;;
44987;SDS011;35735;52.226;21.254;2023-02-03T01:06:33;10.25;;;5.05;;
44987;SDS011;35735;52.226;21.254;2023-02-03T01:11:34;7.00;;;5.20;;
44987;SDS011;35735;52.226;21.254;2023-02-03T01:16:35;7.35;;;5.00;;
44987;SDS011;35735;52.226;21.254;2023-02-03T01:21:35;8.35;;;5.57;;
44987;SDS011;35735;52.226;21.254;2023-02-03T01:26:36;7.50;;;4.65;;
44987;SDS011;35735;52.226;21.254;2023-02-03T01:31:37;5.62;;;4.00;;
44987;SDS011;35735;52.226;21.254;2023-02-03T01:36:40;5.47;;;4.10;;
44987;SDS011;35735;52.226;21.254;2023-02-03T01:41:41;5.55;;;3.53;;
44987;SDS011;35735;52.226;21.254;2023-02-03T01:46:43;6.70;;;3.60;;
44987;SDS011;35735;52.226;21.254;2023-02-03T01:51:48;5.43;;;3.40;;
44987;SDS011;35735;52.226;21.254;2023-02-03T01:56:50;5.68;;;3.42;;
44987;SDS011;35735;52.226;21.254;2023-02-03T02:01:55;6.75;;;3.42;;
44987;SDS011;35735;52.226;21.254;2023-02-03T02:06:57;4.45;;;2.80;;
44987;SDS011;35735;52.226;21.254;2023-02-03T02:11:58;5.32;;;2.97;;
44987;SDS011;35735;52.226;21.254;2023-02-03T02:17:07;7.03;;;3.20;;
44987;SDS011;35735;52.226;21.254;2023-02-03T02:34:06;5.07;;;2.95;;
44987;SDS011;35735;52.226;21.254;2023-02-03T02:39:49;6.85;;;3.17;;
44987;SDS011;35735;52.226;21.254;2023-02-03T02:45:19;6.22;;;2.97;;
44987;SDS011;35735;52.226;21.254;2023-02-03T02:50:29;4.68;;;3.42;;
44987;SDS011;35735;52.226;21.254;2023-02-03T02:55:36;4.60;;;3.17;;
44987;SDS011;35735;52.226;21.254;2023-02-03T03:00:40;3.90;;;2.67;;
44987;SDS011;35735;52.226;21.254;2023-02-03T03:05:42;4.90;;;2.87;;
44987;SDS011;35735;52.226;21.254;2023-02-03T03:10:50;4.75;;;2.72;;
44987;SDS011;35735;52.226;21.254;2023-02-03T03:15:53;4.87;;;2.40;;
44987;SDS011;35735;52.226;21.254;2023-02-03T03:20:56;3.97;;;2.53;;
44987;SDS011;35735;52.226;21.254;2023-02-03T03:26:01;3.85;;;2.50;;
44987;SDS011;35735;52.226;21.254;2023-02-03T03:31:32;3.08;;;2.20;;
44987;SDS011;35735;52.226;21.254;2023-02-03T03:36:36;6.43;;;2.53;;
44987;SDS011;35735;52.226;21.254;2023-02-03T03:47:04;4.03;;;2.20;;
44987;SDS011;35735;52.226;21.254;2023-02-03T03:52:15;4.20;;;2.67;;
44987;SDS011;35735;52.226;21.254;2023-02-03T03:57:26;4.05;;;2.33;;
44987;SDS011;35735;52.226;21.254;2023-02-03T04:02:33;5.07;;;2.45;;
44987;SDS011;35735;52.226;21.254;2023-02-03T04:07:40;5.30;;;2.50;;
44987;SDS011;35735;52.226;21.254;2023-02-03T04:12:45;5.00;;;2.62;;
44987;SDS011;35735;52.226;21.254;2023-02-03T04:17:46;6.25;;;3.22;;
44987;SDS011;35735;52.226;21.254;2023-02-03T04:22:46;6.25;;;4.07;;
44987;SDS011;35735;52.226;21.254;2023-02-03T04:27:47;6.25;;;3.12;;
44987;SDS011;35735;52.226;21.254;2023-02-03T04:32:48;5.43;;;2.83;;
44987;SDS011;35735;52.226;21.254;2023-02-03T04:37:48;5.43;;;3.33;;
44987;SDS011;35735;52.226;21.254;2023-02-03T04:42:49;8.80;;;4.25;;
44987;SDS011;35735;52.226;21.254;2023-02-03T04:47:52;8.05;;;5.03;;
44987;SDS011;35735;52.226;21.254;2023-02-03T04:52:53;9.65;;;5.18;;
44987;SDS011;35735;52.226;21.254;2023-02-03T04:57:54;6.82;;;3.90;;
44987;SDS011;35735;52.226;21.254;2023-02-03T05:02:55;7.50;;;3.75;;
44987;SDS011;35735;52.226;21.254;2023-02-03T05:07:56;6.82;;;4.20;;
44987;SDS011;35735;52.226;21.254;2023-02-03T05:12:56;5.72;;;4.00;;
44987;SDS011;35735;52.226;21.254;2023-02-03T05:17:57;6.03;;;4.28;;
44987;SDS011;35735;52.226;21.254;2023-02-03T05:22:57;6.30;;;4.03;;
44987;SDS011;35735;52.226;21.254;2023-02-03T05:27:58;7.45;;;4.37;;
44987;SDS011;35735;52.226;21.254;2023-02-03T05:32:59;7.90;;;4.43;;
44987;SDS011;35735;52.226;21.254;2023-02-03T05:37:59;7.22;;;4.80;;
44987;SDS011;35735;52.226;21.254;2023-02-03T05:43:00;7.07;;;5.05;;
44987;SDS011;35735;52.226;21.254;2023-02-03T05:48:00;9.32;;;6.03;;
44987;SDS011;35735;52.226;21.254;2023-02-03T05:53:02;8.15;;;5.25;;
44987;SDS011;35735;52.226;21.254;2023-02-03T05:58:05;7.75;;;5.15;;
44987;SDS011;35735;52.226;21.254;2023-02-03T06:03:05;8.10;;;5.55;;
44987;SDS011;35735;52.226;21.254;2023-02-03T06:08:07;7.93;;;5.75;;
44987;SDS011;35735;52.226;21.254;2023-02-03T06:13:11;10.45;;;6.00;;
44987;SDS011;35735;52.226;21.254;2023-02-03T06:18:14;11.38;;;7.75;;
44987;SDS011;35735;52.226;21.254;2023-02-03T06:23:15;14.35;;;9.38;;
44987;SDS011;35735;52.226;21.254;2023-02-03T06:28:16;12.10;;;7.70;;
44987;SDS011;35735;52.226;21.254;2023-02-03T06:33:16;9.27;;;6.37;;
44987;SDS011;35735;52.226;21.254;2023-02-03T06:38:17;10.75;;;6.60;;
44987;SDS011;35735;52.226;21.254;2023-02-03T06:43:17;11.12;;;6.82;;
44987;SDS011;35735;52.226;21.254;2023-02-03T06:48:18;10.93;;;6.85;;
44987;SDS011;35735;52.226;21.254;2023-02-03T06:53:19;11.10;;;6.28;;
44987;SDS011;35735;52.226;21.254;2023-02-03T06:58:19;10.85;;;6.65;;
44987;SDS011;35735;52.226;21.254;2023-02-03T07:03:20;10.93;;;6.57;;
44987;SDS011;35735;52.226;21.254;2023-02-03T07:08:20;12.80;;;7.85;;
44987;SDS011;35735;52.226;21.254;2023-02-03T07:13:21;11.00;;;6.80;;
44987;SDS011;35735;52.226;21.254;2023-02-03T07:18:22;9.02;;;5.72;;
44987;SDS011;35735;52.226;21.254;2023-02-03T07:23:22;10.20;;;6.43;;
44987;SDS011;35735;52.226;21.254;2023-02-03T07:28:23;11.18;;;6.07;;
44987;SDS011;35735;52.226;21.254;2023-02-03T07:33:23;8.77;;;5.78;;
44987;SDS011;35735;52.226;21.254;2023-02-03T07:38:24;10.63;;;6.12;;
44987;SDS011;35735;52.226;21.254;2023-02-03T07:43:26;12.23;;;5.80;;
44987;SDS011;35735;52.226;21.254;2023-02-03T07:48:27;11.75;;;5.97;;
44987;SDS011;35735;52.226;21.254;2023-02-03T07:53:27;8.48;;;5.28;;
44987;SDS011;35735;52.226;21.254;2023-02-03T07:58:28;12.80;;;5.70;;
44987;SDS011;35735;52.226;21.254;2023-02-03T08:03:30;9.38;;;5.40;;
44987;SDS011;35735;52.226;21.254;2023-02-03T08:08:30;8.18;;;5.05;;
44987;SDS011;35735;52.226;21.254;2023-02-03T08:13:31;12.27;;;5.30;;
44987;SDS011;35735;52.226;21.254;2023-02-03T08:18:31;10.57;;;5.32;;
44987;SDS011;35735;52.226;21.254;2023-02-03T08:23:32;8.63;;;5.25;;
44987;SDS011;35735;52.226;21.254;2023-02-03T08:28:33;11.48;;;4.80;;
44987;SDS011;35735;52.226;21.254;2023-02-03T08:33:33;13.55;;;5.00;;
44987;SDS011;35735;52.226;21.254;2023-02-03T08:38:34;8.43;;;4.22;;
44987;SDS011;35735;52.226;21.254;2023-02-03T08:43:34;11.88;;;3.87;;
44987;SDS011;35735;52.226;21.254;2023-02-03T08:48:35;5.25;;;3.20;;
44987;SDS011;35735;52.226;21.254;2023-02-03T08:53:36;8.40;;;3.55;;
44987;SDS011;35735;52.226;21.254;2023-02-03T08:58:36;7.10;;;3.50;;
44987;SDS011;35735;52.226;21.254;2023-02-03T09:03:38;7.35;;;3.90;;
44987;SDS011;35735;52.226;21.254;2023-02-03T09:08:38;7.60;;;4.60;;
44987;SDS011;35735;52.226;21.254;2023-02-03T09:13:39;8.32;;;4.00;;
44987;SDS011;35735;52.226;21.254;2023-02-03T09:18:40;7.65;;;4.15;;
44987;SDS011;35735;52.226;21.254;2023-02-03T09:23:41;5.75;;;3.60;;
44987;SDS011;35735;52.226;21.254;2023-02-03T09:28:42;6.93;;;3.87;;
44987;SDS011;35735;52.226;21.254;2023-02-03T09:33:43;10.10;;;4.55;;
44987;SDS011;35735;52.226;21.254;2023-02-03T09:38:44;7.50;;;4.18;;
44987;SDS011;35735;52.226;21.254;2023-02-03T09:59:55;5.72;;;3.20;;
44987;SDS011;35735;52.226;21.254;2023-02-03T10:05:00;6.45;;;2.87;;
44987;SDS011;35735;52.226;21.254;2023-02-03T10:15:39;6.30;;;3.45;;
44987;SDS011;35735;52.226;21.254;2023-02-03T10:20:52;6.40;;;2.72;;
44987;SDS011;35735;52.226;21.254;2023-02-03T10:26:00;3.42;;;2.30;;
44987;SDS011;35735;52.226;21.254;2023-02-03T10:31:17;3.60;;;2.30;;
44987;SDS011;35735;52.226;21.254;2023-02-03T10:36:21;4.50;;;2.08;;
44987;SDS011;35735;52.226;21.254;2023-02-03T10:41:31;4.30;;;2.10;;
44987;SDS011;35735;52.226;21.254;2023-02-03T10:46:33;3.42;;;2.10;;
44987;SDS011;35735;52.226;21.254;2023-02-03T10:51:50;4.40;;;2.10;;
44987;SDS011;35735;52.226;21.254;2023-02-03T10:56:54;7.07;;;1.70;;
44987;SDS011;35735;52.226;21.254;2023-02-03T11:02:06;3.00;;;1.65;;
44987;SDS011;35735;52.226;21.254;2023-02-03T11:07:10;2.22;;;1.50;;
44987;SDS011;35735;52.226;21.254;2023-02-03T11:12:24;4.97;;;1.77;;
44987;SDS011;35735;52.226;21.254;2023-02-03T11:17:25;2.08;;;1.55;;
44987;SDS011;35735;52.226;21.254;2023-02-03T11:22:36;5.05;;;1.80;;
44987;SDS011;35735;52.226;21.254;2023-02-03T11:27:38;4.57;;;2.17;;
44987;SDS011;35735;52.226;21.254;2023-02-03T11:32:39;3.37;;;1.98;;
44987;SDS011;35735;52.226;21.254;2023-02-03T11:37:45;2.97;;;2.15;;
44987;SDS011;35735;52.226;21.254;2023-02-03T11:53:04;4.55;;;2.30;;
44987;SDS011;35735;52.226;21.254;2023-02-03T11:58:47;4.03;;;2.55;;
44987;SDS011;35735;52.226;21.254;2023-02-03T12:04:05;4.15;;;2.30;;
44987;SDS011;35735;52.226;21.254;2023-02-03T12:36:34;4.68;;;1.95;;
44987;SDS011;35735;52.226;21.254;2023-02-03T12:41:43;4.62;;;1.90;;
44987;SDS011;35735;52.226;21.254;2023-02-03T12:47:02;4.53;;;2.17;;
44987;SDS011;35735;52.226;21.254;2023-02-03T12:52:15;7.93;;;2.85;;
44987;SDS011;35735;52.226;21.254;2023-02-03T12:57:26;8.05;;;4.10;;
44987;SDS011;35735;52.226;21.254;2023-02-03T13:02:42;6.10;;;3.28;;
44987;SDS011;35735;52.226;21.254;2023-02-03T13:08:19;8.77;;;4.12;;
44987;SDS011;35735;52.226;21.254;2023-02-03T13:13:32;6.25;;;3.70;;
44987;SDS011;35735;52.226;21.254;2023-02-03T13:18:43;7.53;;;4.32;;
44987;SDS011;35735;52.226;21.254;2023-02-03T13:23:49;10.13;;;5.18;;
44987;SDS011;35735;52.226;21.254;2023-02-03T13:34:28;6.15;;;3.33;;
44987;SDS011;35735;52.226;21.254;2023-02-03T13:39:45;5.45;;;2.95;;
44987;SDS011;35735;52.226;21.254;2023-02-03T13:45:00;6.80;;;3.78;;
44987;SDS011;35735;52.226;21.254;2023-02-03T13:50:15;8.45;;;3.40;;
44987;SDS011;35735;52.226;21.254;2023-02-03T14:05:45;5.70;;;3.10;;
44987;SDS011;35735;52.226;21.254;2023-02-03T14:10:47;6.60;;;3.78;;
44987;SDS011;35735;52.226;21.254;2023-02-03T14:16:34;6.93;;;4.22;;
44987;SDS011;35735;52.226;21.254;2023-02-03T14:27:19;11.10;;;4.82;;
44987;SDS011;35735;52.226;21.254;2023-02-03T14:32:23;9.98;;;5.47;;
44987;SDS011;35735;52.226;21.254;2023-02-03T14:37:24;8.60;;;5.25;;
44987;SDS011;35735;52.226;21.254;2023-02-03T14:59:01;14.07;;;7.10;;
44987;SDS011;35735;52.226;21.254;2023-02-03T15:09:18;11.23;;;7.03;;
44987;SDS011;35735;52.226;21.254;2023-02-03T15:14:39;11.45;;;6.03;;
44987;SDS011;35735;52.226;21.254;2023-02-03T15:19:40;10.90;;;6.18;;
44987;SDS011;35735;52.226;21.254;2023-02-03T15:24:41;11.45;;;6.07;;
44987;SDS011;35735;52.226;21.254;2023-02-03T15:29:42;11.93;;;6.75;;
44987;SDS011;35735;52.226;21.254;2023-02-03T15:34:49;16.23;;;7.30;;
44987;SDS011;35735;52.226;21.254;2023-02-03T15:55:40;17.15;;;8.93;;
44987;SDS011;35735;52.226;21.254;2023-02-03T16:00:49;12.85;;;8.05;;
44987;SDS011;35735;52.226;21.254;2023-02-03T16:05:53;14.52;;;8.02;;
44987;SDS011;35735;52.226;21.254;2023-02-03T16:10:54;15.45;;;9.00;;
44987;SDS011;35735;52.226;21.254;2023-02-03T16:16:13;14.80;;;8.57;;
44987;SDS011;35735;52.226;21.254;2023-02-03T16:26:35;17.87;;;9.27;;
44987;SDS011;35735;52.226;21.254;2023-02-03T16:31:37;16.80;;;9.05;;
44987;SDS011;35735;52.226;21.254;2023-02-03T16:36:45;17.55;;;8.20;;
44987;SDS011;35735;52.226;21.254;2023-02-03T16:41:46;15.93;;;9.45;;
44987;SDS011;35735;52.226;21.254;2023-02-03T16:46:47;17.20;;;11.15;;
44987;SDS011;35735;52.226;21.254;2023-02-03T16:51:48;15.95;;;8.75;;
44987;SDS011;35735;52.226;21.254;2023-02-03T16:56:49;21.30;;;11.68;;
44987;SDS011;35735;52.226;21.254;2023-02-03T17:01:49;19.85;;;10.38;;
44987;SDS011;35735;52.226;21.254;2023-02-03T17:06:50;15.23;;;8.98;;
44987;SDS011;35735;52.226;21.254;2023-02-03T17:11:50;17.15;;;10.85;;
44987;SDS011;35735;52.226;21.254;2023-02-03T17:16:51;23.05;;;13.93;;
44987;SDS011;35735;52.226;21.254;2023-02-03T17:21:52;22.90;;;12.23;;
44987;SDS011;35735;52.226;21.254;2023-02-03T17:26:52;23.10;;;14.95;;
44987;SDS011;35735;52.226;21.254;2023-02-03T17:31:53;24.48;;;14.00;;
44987;SDS011;35735;52.226;21.254;2023-02-03T17:36:53;18.83;;;12.15;;
44987;SDS011;35735;52.226;21.254;2023-02-03T17:41:54;19.87;;;13.75;;
44987;SDS011;35735;52.226;21.254;2023-02-03T17:46:55;20.77;;;13.50;;
44987;SDS011;35735;52.226;21.254;2023-02-03T17:51:55;22.98;;;14.30;;
44987;SDS011;35735;52.226;21.254;2023-02-03T17:56:56;22.10;;;14.02;;
44987;SDS011;35735;52.226;21.254;2023-02-03T18:01:57;19.92;;;13.45;;
44987;SDS011;35735;52.226;21.254;2023-02-03T18:06:57;18.05;;;12.13;;
44987;SDS011;35735;52.226;21.254;2023-02-03T18:11:58;20.23;;;12.37;;
44987;SDS011;35735;52.226;21.254;2023-02-03T18:16:58;21.52;;;12.77;;
44987;SDS011;35735;52.226;21.254;2023-02-03T18:21:59;18.83;;;13.10;;
44987;SDS011;35735;52.226;21.254;2023-02-03T18:26:59;19.95;;;12.60;;
44987;SDS011;35735;52.226;21.254;2023-02-03T18:32:00;15.32;;;9.40;;
44987;SDS011;35735;52.226;21.254;2023-02-03T18:37:00;19.83;;;11.30;;
44987;SDS011;35735;52.226;21.254;2023-02-03T18:42:01;24.48;;;13.27;;
44987;SDS011;35735;52.226;21.254;2023-02-03T18:47:03;22.58;;;12.52;;
44987;SDS011;35735;52.226;21.254;2023-02-03T18:52:04;17.60;;;11.05;;
44987;SDS011;35735;52.226;21.254;2023-02-03T18:57:04;16.42;;;10.07;;
44987;SDS011;35735;52.226;21.254;2023-02-03T19:02:05;18.80;;;11.02;;
44987;SDS011;35735;52.226;21.254;2023-02-03T19:07:07;19.92;;;11.20;;
44987;SDS011;35735;52.226;21.254;2023-02-03T19:12:08;16.30;;;9.90;;
44987;SDS011;35735;52.226;21.254;2023-02-03T19:17:09;21.15;;;12.50;;
44987;SDS011;35735;52.226;21.254;2023-02-03T19:22:12;30.33;;;17.65;;
44987;SDS011;35735;52.226;21.254;2023-02-03T19:27:13;24.20;;;14.25;;
44987;SDS011;35735;52.226;21.254;2023-02-03T19:32:13;27.17;;;14.23;;
44987;SDS011;35735;52.226;21.254;2023-02-03T19:37:14;28.35;;;14.82;;
44987;SDS011;35735;52.226;21.254;2023-02-03T19:42:15;29.08;;;16.48;;
44987;SDS011;35735;52.226;21.254;2023-02-03T19:47:16;70.03;;;33.75;;
44987;SDS011;35735;52.226;21.254;2023-02-03T19:52:17;33.58;;;17.98;;
44987;SDS011;35735;52.226;21.254;2023-02-03T19:57:17;22.60;;;12.82;;
44987;SDS011;35735;52.226;21.254;2023-02-03T20:02:18;23.58;;;14.50;;
44987;SDS011;35735;52.226;21.254;2023-02-03T20:07:19;86.57;;;42.65;;
44987;SDS011;35735;52.226;21.254;2023-02-03T20:12:19;197.02;;;87.82;;
44987;SDS011;35735;52.226;21.254;2023-02-03T20:17:20;24.67;;;14.13;;
44987;SDS011;35735;52.226;21.254;2023-02-03T20:22:20;23.35;;;14.82;;
44987;SDS011;35735;52.226;21.254;2023-02-03T20:27:21;35.42;;;19.33;;
44987;SDS011;35735;52.226;21.254;2023-02-03T20:32:21;61.53;;;29.12;;
44987;SDS011;35735;52.226;21.254;2023-02-03T20:37:22;33.97;;;19.02;;
44987;SDS011;35735;52.226;21.254;2023-02-03T20:42:23;34.75;;;17.83;;
44987;SDS011;35735;52.226;21.254;2023-02-03T20:47:24;32.40;;;17.10;;
44987;SDS011;35735;52.226;21.254;2023-02-03T20:52:25;23.45;;;14.77;;
44987;SDS011;35735;52.226;21.254;2023-02-03T20:57:25;85.47;;;40.60;;
44987;SDS011;35735;52.226;21.254;2023-02-03T21:02:26;47.15;;;24.33;;
44987;SDS011;35735;52.226;21.254;2023-02-03T21:07:28;46.03;;;24.40;;
44987;SDS011;35735;52.226;21.254;2023-02-03T21:12:29;66.30;;;31.58;;
44987;SDS011;35735;52.226;21.254;2023-02-03T21:17:31;106.00;;;45.53;;
44987;SDS011;35735;52.226;21.254;2023-02-03T21:22:34;44.05;;;23.23;;
44987;SDS011;35735;52.226;21.254;2023-02-03T21:27:35;22.23;;;13.20;;
44987;SDS011;35735;52.226;21.254;2023-02-03T21:32:37;35.47;;;18.35;;
44987;SDS011;35735;52.226;21.254;2023-02-03T21:37:40;30.37;;;16.98;;
44987;SDS011;35735;52.226;21.254;2023-02-03T21:42:41;34.42;;;18.42;;
44987;SDS011;35735;52.226;21.254;2023-02-03T21:47:42;17.00;;;11.80;;
44987;SDS011;35735;52.226;21.254;2023-02-03T21:52:44;20.40;;;13.02;;
44987;SDS011;35735;52.226;21.254;2023-02-03T21:57:48;23.38;;;13.30;;
44987;SDS011;35735;52.226;21.254;2023-02-03T22:02:55;22.40;;;13.82;;
44987;SDS011;35735;52.226;21.254;2023-02-03T22:07:58;20.62;;;13.75;;
44987;SDS011;35735;52.226;21.254;2023-02-03T22:12:59;45.90;;;24.63;;
44987;SDS011;35735;52.226;21.254;2023-02-03T22:18:00;108.03;;;48.58;;
44987;SDS011;35735;52.226;21.254;2023-02-03T22:23:01;22.27;;;13.70;;
44987;SDS011;35735;52.226;21.254;2023-02-03T22:28:01;16.55;;;10.20;;
44987;SDS011;35735;52.226;21.254;2023-02-03T22:33:02;36.75;;;19.17;;
44987;SDS011;35735;52.226;21.254;2023-02-03T22:38:03;23.90;;;12.57;;
44987;SDS011;35735;52.226;21.254;2023-02-03T22:43:04;20.20;;;12.80;;
44987;SDS011;35735;52.226;21.254;2023-02-03T22:48:05;21.12;;;12.35;;
44987;SDS011;35735;52.226;21.254;2023-02-03T22:53:05;23.48;;;13.80;;
44987;SDS011;35735;52.226;21.254;2023-02-03T22:58:06;47.15;;;22.80;;
44987;SDS011;35735;52.226;21.254;2023-02-03T23:03:07;26.73;;;14.18;;
44987;SDS011;35735;52.226;21.254;2023-02-03T23:08:07;20.92;;;12.35;;
44987;SDS011;35735;52.226;21.254;2023-02-03T23:13:08;16.15;;;10.75;;
44987;SDS011;35735;52.226;21.254;2023-02-03T23:18:09;16.37;;;9.27;;
44987;SDS011;35735;52.226;21.254;2023-02-03T23:23:09;14.48;;;8.90;;
44987;SDS011;35735;52.226;21.254;2023-02-03T23:28:11;13.25;;;8.65;;
44987;SDS011;35735;52.226;21.254;2023-02-03T23:33:11;13.25;;;8.63;;
44987;SDS011;35735;52.226;21.254;2023-02-03T23:38:13;13.77;;;8.23;;
44987;SDS011;35735;52.226;21.254;2023-02-03T23:43:15;11.07;;;7.32;;
44987;SDS011;35735;52.226;21.254;2023-02-03T23:48:15;11.10;;;7.15;;
44987;SDS011;35735;52.226;21.254;2023-02-03T23:53:16;12.52;;;7.50;;
44987;SDS011;35735;52.226;21.254;2023-02-03T23:58:16;12.27;;;7.35;;
